Aledo, TX

6:19 AM CST on January 29, 2015 (GMT -0600)
LOCKDOWN21/83 | Change Station
CLOSE
Current Station
Personal Weather Station
Location: Aledo, TX
Elevation: 876 ft
Nearby Weather Stations

Elev 876 ft 32.69 °N, 97.61 °W | Updated 27 seconds ago

Partly Cloudy
Partly Cloudy
55.2 °F
Feels Like 55.2 °F
N
0.0
Wind Variable Wind from WNW
Gusts 5.0 mph

Today
High -- | Low -- °F
--% Chance of Precip.
Yesterday
High -- | Low -- °F
Precip. -- in
7:27 AM 6:00 PM
Waxing Gibbous, 74% visible
Pressure 30.12 in
Visibility 10.0 miles
Clouds Mostly Cloudy 25000 ft
Dew Point 41 °F
Humidity 59%
Rainfall 0.00 in
Snow Depth Not available.
UV 0 out of 12
Pollen 8.20 out of 12
Air Quality Not available.
Flu Activity Not available.
METAR KNFW 291152Z 31005KT 10SM BKN250 13/04 A3016 RMK AO2 SLP197 T01330044 53016 $

More Conditions Fewer Conditions

Pressure 30.12 in
Visibility 10.0 miles
Clouds Mostly Cloudy 25000 ft
Dew Point 41 °F
Humidity 59%
Rainfall 0.00 in
Snow Depth Not available.
UV 0 out of 12
Pollen 8.20 out of 12
Air Quality Not available.
Flu Activity Not available.
METAR KNFW 291152Z 31005KT 10SM BKN250 13/04 A3016 RMK AO2 SLP197 T01330044 53016 $

More Conditions Fewer Conditions

10-Day Weather Forecast

Almanac

Astronomy

Jan. 29, 2015 Rise Set
Actual Time
Civil Twilight
Nautical Twilight
Astronomical Twilight
Moon
Length of Visible Light
Length of Day
Tomorrow will be .
, % of the Moon is Illuminated

Today's Extremes

State Highs State Lows

Community

WunderPhotos

Upload Photos

1,791,418 photos uploaded!

WunderBlogs® & News

Nearby

Air Quality

  Air Quality AQ Index Pollutant
Not available.

Snow Depth

Station Depth Elevation

Earthquake Activity

City Distance Mag. Time & Date
Minimum magnitude displayed is 2.5.

Coastal Water Temperatures

Place Temperature

Nearby Weather Stations